sensor_id;sensor_type;location;lat;lon;timestamp;P1;durP1;ratioP1;P2;durP2;ratioP2
56427;SDS011;42331;53.578;9.760;2024-01-30T00:02:27;14.90;;;7.72;;
56427;SDS011;42331;53.578;9.760;2024-01-30T00:04:57;17.17;;;7.35;;
56427;SDS011;42331;53.578;9.760;2024-01-30T00:07:50;13.93;;;7.20;;
56427;SDS011;42331;53.578;9.760;2024-01-30T00:10:32;15.23;;;7.43;;
56427;SDS011;42331;53.578;9.760;2024-01-30T00:13:09;13.05;;;6.82;;
56427;SDS011;42331;53.578;9.760;2024-01-30T00:15:48;12.80;;;6.70;;
56427;SDS011;42331;53.578;9.760;2024-01-30T00:18:28;12.68;;;7.65;;
56427;SDS011;42331;53.578;9.760;2024-01-30T00:21:21;12.98;;;6.85;;
56427;SDS011;42331;53.578;9.760;2024-01-30T00:24:08;14.57;;;6.82;;
56427;SDS011;42331;53.578;9.760;2024-01-30T00:29:53;10.55;;;6.50;;
56427;SDS011;42331;53.578;9.760;2024-01-30T00:32:26;11.73;;;6.45;;
56427;SDS011;42331;53.578;9.760;2024-01-30T00:35:37;13.65;;;6.78;;
56427;SDS011;42331;53.578;9.760;2024-01-30T00:38:40;13.25;;;6.18;;
56427;SDS011;42331;53.578;9.760;2024-01-30T00:44:38;11.73;;;6.05;;
56427;SDS011;42331;53.578;9.760;2024-01-30T00:47:14;10.00;;;5.65;;
56427;SDS011;42331;53.578;9.760;2024-01-30T00:49:52;11.50;;;6.10;;
56427;SDS011;42331;53.578;9.760;2024-01-30T00:52:25;9.57;;;5.65;;
56427;SDS011;42331;53.578;9.760;2024-01-30T00:54:56;10.70;;;6.03;;
56427;SDS011;42331;53.578;9.760;2024-01-30T00:57:30;10.43;;;5.90;;
56427;SDS011;42331;53.578;9.760;2024-01-30T01:00:25;11.93;;;5.63;;
56427;SDS011;42331;53.578;9.760;2024-01-30T01:03:16;12.35;;;5.18;;
56427;SDS011;42331;53.578;9.760;2024-01-30T01:06:30;11.32;;;5.72;;
56427;SDS011;42331;53.578;9.760;2024-01-30T01:16:26;9.95;;;5.35;;
56427;SDS011;42331;53.578;9.760;2024-01-30T01:19:05;11.40;;;5.68;;
56427;SDS011;42331;53.578;9.760;2024-01-30T01:21:38;9.48;;;5.60;;
56427;SDS011;42331;53.578;9.760;2024-01-30T01:24:09;12.13;;;5.75;;
56427;SDS011;42331;53.578;9.760;2024-01-30T01:26:40;13.07;;;6.57;;
56427;SDS011;42331;53.578;9.760;2024-01-30T01:29:10;11.05;;;6.10;;
56427;SDS011;42331;53.578;9.760;2024-01-30T01:31:42;8.15;;;5.32;;
56427;SDS011;42331;53.578;9.760;2024-01-30T01:34:16;9.75;;;5.70;;
56427;SDS011;42331;53.578;9.760;2024-01-30T01:36:46;9.65;;;5.68;;
56427;SDS011;42331;53.578;9.760;2024-01-30T01:39:19;10.63;;;5.45;;
56427;SDS011;42331;53.578;9.760;2024-01-30T01:41:51;8.52;;;5.20;;
56427;SDS011;42331;53.578;9.760;2024-01-30T01:44:31;9.80;;;5.63;;
56427;SDS011;42331;53.578;9.760;2024-01-30T01:47:04;10.88;;;5.75;;
56427;SDS011;42331;53.578;9.760;2024-01-30T01:49:46;9.38;;;5.28;;
56427;SDS011;42331;53.578;9.760;2024-01-30T01:52:17;12.00;;;5.50;;
56427;SDS011;42331;53.578;9.760;2024-01-30T01:54:53;11.27;;;5.35;;
56427;SDS011;42331;53.578;9.760;2024-01-30T01:57:24;11.40;;;5.30;;
56427;SDS011;42331;53.578;9.760;2024-01-30T01:59:55;11.73;;;5.78;;
56427;SDS011;42331;53.578;9.760;2024-01-30T02:02:35;10.05;;;5.47;;
56427;SDS011;42331;53.578;9.760;2024-01-30T02:05:08;9.43;;;5.10;;
56427;SDS011;42331;53.578;9.760;2024-01-30T02:07:42;11.68;;;5.50;;
56427;SDS011;42331;53.578;9.760;2024-01-30T02:10:28;10.40;;;5.65;;
56427;SDS011;42331;53.578;9.760;2024-01-30T02:13:06;9.20;;;5.63;;
56427;SDS011;42331;53.578;9.760;2024-01-30T02:15:43;8.98;;;5.07;;
56427;SDS011;42331;53.578;9.760;2024-01-30T02:18:19;13.23;;;5.20;;
56427;SDS011;42331;53.578;9.760;2024-01-30T02:23:52;8.88;;;5.15;;
56427;SDS011;42331;53.578;9.760;2024-01-30T02:29:40;9.68;;;5.38;;
56427;SDS011;42331;53.578;9.760;2024-01-30T02:32:10;8.68;;;5.20;;
56427;SDS011;42331;53.578;9.760;2024-01-30T02:35:12;8.35;;;5.15;;
56427;SDS011;42331;53.578;9.760;2024-01-30T02:37:45;9.05;;;5.22;;
56427;SDS011;42331;53.578;9.760;2024-01-30T02:40:24;9.52;;;5.43;;
56427;SDS011;42331;53.578;9.760;2024-01-30T02:43:46;9.40;;;5.50;;
56427;SDS011;42331;53.578;9.760;2024-01-30T02:46:58;11.35;;;5.88;;
56427;SDS011;42331;53.578;9.760;2024-01-30T02:53:33;8.95;;;5.32;;
56427;SDS011;42331;53.578;9.760;2024-01-30T02:58:46;12.05;;;5.43;;
56427;SDS011;42331;53.578;9.760;2024-01-30T03:01:17;6.83;;;3.93;;
56427;SDS011;42331;53.578;9.760;2024-01-30T03:03:58;13.23;;;5.73;;
56427;SDS011;42331;53.578;9.760;2024-01-30T03:07:03;10.55;;;5.60;;
56427;SDS011;42331;53.578;9.760;2024-01-30T03:09:50;9.80;;;5.72;;
56427;SDS011;42331;53.578;9.760;2024-01-30T03:12:33;8.93;;;5.15;;
56427;SDS011;42331;53.578;9.760;2024-01-30T03:15:04;12.02;;;5.90;;
56427;SDS011;42331;53.578;9.760;2024-01-30T03:17:47;11.13;;;5.72;;
56427;SDS011;42331;53.578;9.760;2024-01-30T03:20:21;9.85;;;5.07;;
56427;SDS011;42331;53.578;9.760;2024-01-30T03:22:53;9.10;;;5.40;;
56427;SDS011;42331;53.578;9.760;2024-01-30T03:25:25;13.13;;;5.82;;
56427;SDS011;42331;53.578;9.760;2024-01-30T03:27:56;10.60;;;6.18;;
56427;SDS011;42331;53.578;9.760;2024-01-30T03:30:26;15.40;;;6.35;;
56427;SDS011;42331;53.578;9.760;2024-01-30T03:33:02;12.23;;;6.95;;
56427;SDS011;42331;53.578;9.760;2024-01-30T03:35:55;11.95;;;6.50;;
56427;SDS011;42331;53.578;9.760;2024-01-30T03:38:28;13.20;;;6.88;;
56427;SDS011;42331;53.578;9.760;2024-01-30T03:41:19;10.35;;;6.07;;
56427;SDS011;42331;53.578;9.760;2024-01-30T03:43:50;13.63;;;6.68;;
56427;SDS011;42331;53.578;9.760;2024-01-30T03:46:24;9.57;;;5.85;;
56427;SDS011;42331;53.578;9.760;2024-01-30T03:48:57;15.93;;;6.38;;
56427;SDS011;42331;53.578;9.760;2024-01-30T03:51:31;12.60;;;6.40;;
56427;SDS011;42331;53.578;9.760;2024-01-30T03:54:09;10.85;;;5.70;;
56427;SDS011;42331;53.578;9.760;2024-01-30T03:57:22;10.85;;;6.55;;
56427;SDS011;42331;53.578;9.760;2024-01-30T03:59:55;11.23;;;6.80;;
56427;SDS011;42331;53.578;9.760;2024-01-30T04:02:55;10.75;;;5.82;;
56427;SDS011;42331;53.578;9.760;2024-01-30T04:05:36;11.40;;;6.30;;
56427;SDS011;42331;53.578;9.760;2024-01-30T04:08:21;11.13;;;6.25;;
56427;SDS011;42331;53.578;9.760;2024-01-30T04:14:02;16.17;;;6.25;;
56427;SDS011;42331;53.578;9.760;2024-01-30T04:16:33;12.07;;;6.40;;
56427;SDS011;42331;53.578;9.760;2024-01-30T04:19:04;18.48;;;6.70;;
56427;SDS011;42331;53.578;9.760;2024-01-30T04:21:34;15.43;;;6.77;;
56427;SDS011;42331;53.578;9.760;2024-01-30T04:27:42;12.30;;;6.43;;
56427;SDS011;42331;53.578;9.760;2024-01-30T04:30:12;16.13;;;6.82;;
56427;SDS011;42331;53.578;9.760;2024-01-30T04:32:46;15.02;;;7.70;;
56427;SDS011;42331;53.578;9.760;2024-01-30T04:35:20;11.77;;;6.82;;
56427;SDS011;42331;53.578;9.760;2024-01-30T04:38:03;12.73;;;7.18;;
56427;SDS011;42331;53.578;9.760;2024-01-30T04:41:05;14.43;;;7.68;;
56427;SDS011;42331;53.578;9.760;2024-01-30T04:43:39;14.00;;;6.88;;
56427;SDS011;42331;53.578;9.760;2024-01-30T04:46:09;12.60;;;6.75;;
56427;SDS011;42331;53.578;9.760;2024-01-30T04:55:43;13.37;;;7.77;;
56427;SDS011;42331;53.578;9.760;2024-01-30T04:58:14;12.67;;;7.50;;
56427;SDS011;42331;53.578;9.760;2024-01-30T05:00:58;10.38;;;5.97;;
56427;SDS011;42331;53.578;9.760;2024-01-30T05:09:49;13.98;;;6.90;;
56427;SDS011;42331;53.578;9.760;2024-01-30T05:12:21;13.25;;;7.38;;
56427;SDS011;42331;53.578;9.760;2024-01-30T05:14:52;17.75;;;7.75;;
56427;SDS011;42331;53.578;9.760;2024-01-30T05:20:32;12.15;;;6.90;;
56427;SDS011;42331;53.578;9.760;2024-01-30T05:23:18;14.10;;;7.80;;
56427;SDS011;42331;53.578;9.760;2024-01-30T05:25:49;12.57;;;7.22;;
56427;SDS011;42331;53.578;9.760;2024-01-30T05:28:22;12.03;;;5.53;;
56427;SDS011;42331;53.578;9.760;2024-01-30T05:30:57;17.25;;;7.55;;
56427;SDS011;42331;53.578;9.760;2024-01-30T05:33:34;14.25;;;7.75;;
56427;SDS011;42331;53.578;9.760;2024-01-30T05:36:29;16.05;;;8.02;;
56427;SDS011;42331;53.578;9.760;2024-01-30T05:39:03;14.02;;;8.13;;
56427;SDS011;42331;53.578;9.760;2024-01-30T05:41:54;13.95;;;7.97;;
56427;SDS011;42331;53.578;9.760;2024-01-30T05:44:42;13.13;;;7.93;;
56427;SDS011;42331;53.578;9.760;2024-01-30T05:47:56;15.65;;;7.47;;
56427;SDS011;42331;53.578;9.760;2024-01-30T05:51:56;16.25;;;8.45;;
56427;SDS011;42331;53.578;9.760;2024-01-30T05:54:26;16.83;;;8.18;;
56427;SDS011;42331;53.578;9.760;2024-01-30T05:57:12;17.25;;;9.00;;
56427;SDS011;42331;53.578;9.760;2024-01-30T06:00:21;17.43;;;8.97;;
56427;SDS011;42331;53.578;9.760;2024-01-30T06:06:13;13.90;;;8.30;;
56427;SDS011;42331;53.578;9.760;2024-01-30T06:08:51;12.40;;;7.80;;
56427;SDS011;42331;53.578;9.760;2024-01-30T06:11:33;17.33;;;8.82;;
56427;SDS011;42331;53.578;9.760;2024-01-30T06:14:04;17.42;;;9.70;;
56427;SDS011;42331;53.578;9.760;2024-01-30T06:16:48;18.45;;;9.75;;
56427;SDS011;42331;53.578;9.760;2024-01-30T06:19:19;10.85;;;6.25;;
56427;SDS011;42331;53.578;9.760;2024-01-30T06:21:53;15.57;;;8.68;;
56427;SDS011;42331;53.578;9.760;2024-01-30T06:24:33;17.90;;;8.52;;
56427;SDS011;42331;53.578;9.760;2024-01-30T06:27:12;14.80;;;8.15;;
56427;SDS011;42331;53.578;9.760;2024-01-30T06:29:45;12.70;;;7.65;;
56427;SDS011;42331;53.578;9.760;2024-01-30T06:32:22;13.73;;;8.05;;
56427;SDS011;42331;53.578;9.760;2024-01-30T06:34:56;16.73;;;8.60;;
56427;SDS011;42331;53.578;9.760;2024-01-30T06:37:27;15.25;;;7.97;;
56427;SDS011;42331;53.578;9.760;2024-01-30T06:40:48;14.57;;;7.78;;
56427;SDS011;42331;53.578;9.760;2024-01-30T06:43:30;14.73;;;8.27;;
56427;SDS011;42331;53.578;9.760;2024-01-30T06:46:04;14.95;;;8.25;;
56427;SDS011;42331;53.578;9.760;2024-01-30T06:48:48;15.75;;;7.82;;
56427;SDS011;42331;53.578;9.760;2024-01-30T06:52:00;15.32;;;8.02;;
56427;SDS011;42331;53.578;9.760;2024-01-30T06:54:30;11.13;;;5.70;;
56427;SDS011;42331;53.578;9.760;2024-01-30T06:57:01;15.33;;;8.20;;
56427;SDS011;42331;53.578;9.760;2024-01-30T06:59:35;12.52;;;7.47;;
56427;SDS011;42331;53.578;9.760;2024-01-30T07:02:06;13.75;;;7.30;;
56427;SDS011;42331;53.578;9.760;2024-01-30T07:04:47;15.93;;;8.35;;
56427;SDS011;42331;53.578;9.760;2024-01-30T07:07:53;14.93;;;8.23;;
56427;SDS011;42331;53.578;9.760;2024-01-30T07:10:23;14.45;;;8.35;;
56427;SDS011;42331;53.578;9.760;2024-01-30T07:12:54;14.63;;;8.40;;
56427;SDS011;42331;53.578;9.760;2024-01-30T07:18:41;16.67;;;8.30;;
56427;SDS011;42331;53.578;9.760;2024-01-30T07:21:11;18.85;;;9.80;;
56427;SDS011;42331;53.578;9.760;2024-01-30T07:23:42;20.90;;;9.50;;
56427;SDS011;42331;53.578;9.760;2024-01-30T07:26:13;22.27;;;10.70;;
56427;SDS011;42331;53.578;9.760;2024-01-30T07:28:44;18.13;;;9.32;;
56427;SDS011;42331;53.578;9.760;2024-01-30T07:31:14;26.83;;;10.10;;
56427;SDS011;42331;53.578;9.760;2024-01-30T07:33:45;20.80;;;9.05;;
56427;SDS011;42331;53.578;9.760;2024-01-30T07:36:16;20.98;;;9.52;;
56427;SDS011;42331;53.578;9.760;2024-01-30T07:38:46;15.10;;;7.25;;
56427;SDS011;42331;53.578;9.760;2024-01-30T07:41:17;19.38;;;8.77;;
56427;SDS011;42331;53.578;9.760;2024-01-30T07:43:48;15.35;;;9.40;;
56427;SDS011;42331;53.578;9.760;2024-01-30T07:46:18;11.48;;;6.10;;
56427;SDS011;42331;53.578;9.760;2024-01-30T07:48:49;14.02;;;8.38;;
56427;SDS011;42331;53.578;9.760;2024-01-30T07:51:23;15.60;;;8.55;;
56427;SDS011;42331;53.578;9.760;2024-01-30T07:53:54;18.10;;;8.63;;
56427;SDS011;42331;53.578;9.760;2024-01-30T07:56:25;14.93;;;8.23;;
56427;SDS011;42331;53.578;9.760;2024-01-30T07:58:56;14.40;;;7.93;;
56427;SDS011;42331;53.578;9.760;2024-01-30T08:01:26;9.88;;;5.65;;
56427;SDS011;42331;53.578;9.760;2024-01-30T08:03:57;14.60;;;8.10;;
56427;SDS011;42331;53.578;9.760;2024-01-30T08:06:28;13.13;;;6.20;;
56427;SDS011;42331;53.578;9.760;2024-01-30T08:08:58;15.25;;;9.13;;
56427;SDS011;42331;53.578;9.760;2024-01-30T08:11:29;15.35;;;8.48;;
56427;SDS011;42331;53.578;9.760;2024-01-30T08:16:32;15.85;;;8.13;;
56427;SDS011;42331;53.578;9.760;2024-01-30T08:19:03;14.50;;;8.20;;
56427;SDS011;42331;53.578;9.760;2024-01-30T08:21:33;17.60;;;9.02;;
56427;SDS011;42331;53.578;9.760;2024-01-30T08:24:06;16.10;;;8.90;;
56427;SDS011;42331;53.578;9.760;2024-01-30T08:26:37;14.52;;;8.75;;
56427;SDS011;42331;53.578;9.760;2024-01-30T08:29:08;17.77;;;8.60;;
56427;SDS011;42331;53.578;9.760;2024-01-30T08:31:39;17.50;;;8.77;;
56427;SDS011;42331;53.578;9.760;2024-01-30T08:34:10;13.23;;;7.93;;
56427;SDS011;42331;53.578;9.760;2024-01-30T08:36:40;14.85;;;8.18;;
56427;SDS011;42331;53.578;9.760;2024-01-30T08:39:11;14.27;;;8.50;;
56427;SDS011;42331;53.578;9.760;2024-01-30T08:41:41;13.85;;;8.32;;
56427;SDS011;42331;53.578;9.760;2024-01-30T08:44:12;17.60;;;8.53;;
56427;SDS011;42331;53.578;9.760;2024-01-30T08:46:43;15.57;;;8.55;;
56427;SDS011;42331;53.578;9.760;2024-01-30T08:49:16;16.75;;;8.45;;
56427;SDS011;42331;53.578;9.760;2024-01-30T08:51:47;13.27;;;7.82;;
56427;SDS011;42331;53.578;9.760;2024-01-30T08:54:17;19.90;;;8.15;;
56427;SDS011;42331;53.578;9.760;2024-01-30T08:56:48;14.60;;;8.20;;
56427;SDS011;42331;53.578;9.760;2024-01-30T08:59:19;17.02;;;8.52;;
56427;SDS011;42331;53.578;9.760;2024-01-30T09:01:49;14.63;;;8.35;;
56427;SDS011;42331;53.578;9.760;2024-01-30T09:04:23;13.35;;;8.00;;
56427;SDS011;42331;53.578;9.760;2024-01-30T09:06:54;15.95;;;8.40;;
56427;SDS011;42331;53.578;9.760;2024-01-30T09:09:25;14.25;;;8.70;;
56427;SDS011;42331;53.578;9.760;2024-01-30T09:11:55;16.73;;;8.63;;
56427;SDS011;42331;53.578;9.760;2024-01-30T09:14:28;14.75;;;8.43;;
56427;SDS011;42331;53.578;9.760;2024-01-30T09:16:59;13.38;;;7.90;;
56427;SDS011;42331;53.578;9.760;2024-01-30T09:19:29;10.65;;;6.03;;
56427;SDS011;42331;53.578;9.760;2024-01-30T09:22:00;14.57;;;8.07;;
56427;SDS011;42331;53.578;9.760;2024-01-30T09:24:31;15.17;;;7.47;;
56427;SDS011;42331;53.578;9.760;2024-01-30T09:27:02;18.40;;;8.43;;
56427;SDS011;42331;53.578;9.760;2024-01-30T09:29:32;15.45;;;7.82;;
56427;SDS011;42331;53.578;9.760;2024-01-30T09:32:06;14.02;;;7.93;;
56427;SDS011;42331;53.578;9.760;2024-01-30T09:34:37;17.73;;;8.02;;
56427;SDS011;42331;53.578;9.760;2024-01-30T09:37:09;12.55;;;7.57;;
56427;SDS011;42331;53.578;9.760;2024-01-30T09:39:40;15.63;;;8.10;;
56427;SDS011;42331;53.578;9.760;2024-01-30T09:42:11;15.65;;;8.73;;
56427;SDS011;42331;53.578;9.760;2024-01-30T09:44:58;13.07;;;7.85;;
56427;SDS011;42331;53.578;9.760;2024-01-30T09:47:39;14.38;;;8.40;;
56427;SDS011;42331;53.578;9.760;2024-01-30T09:50:13;17.75;;;8.27;;
56427;SDS011;42331;53.578;9.760;2024-01-30T09:52:45;12.30;;;7.68;;
56427;SDS011;42331;53.578;9.760;2024-01-30T09:57:47;13.30;;;8.10;;
56427;SDS011;42331;53.578;9.760;2024-01-30T10:00:18;13.50;;;8.17;;
56427;SDS011;42331;53.578;9.760;2024-01-30T10:02:49;13.95;;;7.93;;
56427;SDS011;42331;53.578;9.760;2024-01-30T10:05:20;14.18;;;7.90;;
56427;SDS011;42331;53.578;9.760;2024-01-30T10:07:56;13.48;;;8.02;;
56427;SDS011;42331;53.578;9.760;2024-01-30T10:10:27;13.88;;;8.20;;
56427;SDS011;42331;53.578;9.760;2024-01-30T10:12:57;13.43;;;8.15;;
56427;SDS011;42331;53.578;9.760;2024-01-30T10:15:28;13.77;;;7.90;;
56427;SDS011;42331;53.578;9.760;2024-01-30T10:17:59;13.77;;;8.43;;
56427;SDS011;42331;53.578;9.760;2024-01-30T10:20:29;13.43;;;8.13;;
56427;SDS011;42331;53.578;9.760;2024-01-30T10:23:00;11.27;;;5.70;;
56427;SDS011;42331;53.578;9.760;2024-01-30T10:25:31;15.38;;;7.82;;
56427;SDS011;42331;53.578;9.760;2024-01-30T10:28:02;10.05;;;6.88;;
56427;SDS011;42331;53.578;9.760;2024-01-30T10:30:33;16.17;;;8.35;;
56427;SDS011;42331;53.578;9.760;2024-01-30T10:33:04;10.75;;;5.20;;
56427;SDS011;42331;53.578;9.760;2024-01-30T10:35:35;11.68;;;7.10;;
56427;SDS011;42331;53.578;9.760;2024-01-30T10:38:05;15.87;;;7.63;;
56427;SDS011;42331;53.578;9.760;2024-01-30T10:40:40;12.93;;;7.25;;
56427;SDS011;42331;53.578;9.760;2024-01-30T10:43:13;13.23;;;8.13;;
56427;SDS011;42331;53.578;9.760;2024-01-30T10:45:47;12.00;;;6.82;;
56427;SDS011;42331;53.578;9.760;2024-01-30T10:48:24;12.95;;;7.30;;
56427;SDS011;42331;53.578;9.760;2024-01-30T10:50:59;17.50;;;7.15;;
56427;SDS011;42331;53.578;9.760;2024-01-30T10:53:32;16.10;;;7.75;;
56427;SDS011;42331;53.578;9.760;2024-01-30T10:58:35;13.43;;;7.00;;
56427;SDS011;42331;53.578;9.760;2024-01-30T11:01:06;12.40;;;7.20;;
56427;SDS011;42331;53.578;9.760;2024-01-30T11:03:37;10.57;;;6.95;;
56427;SDS011;42331;53.578;9.760;2024-01-30T11:06:10;11.30;;;6.65;;
56427;SDS011;42331;53.578;9.760;2024-01-30T11:08:44;10.77;;;6.28;;
56427;SDS011;42331;53.578;9.760;2024-01-30T11:11:16;15.50;;;6.88;;
56427;SDS011;42331;53.578;9.760;2024-01-30T11:13:46;11.18;;;6.25;;
56427;SDS011;42331;53.578;9.760;2024-01-30T11:16:37;11.60;;;7.05;;
56427;SDS011;42331;53.578;9.760;2024-01-30T11:19:10;13.43;;;7.00;;
56427;SDS011;42331;53.578;9.760;2024-01-30T11:22:01;9.90;;;6.40;;
56427;SDS011;42331;53.578;9.760;2024-01-30T11:24:38;12.82;;;6.85;;
56427;SDS011;42331;53.578;9.760;2024-01-30T11:27:13;12.93;;;7.07;;
56427;SDS011;42331;53.578;9.760;2024-01-30T11:29:49;13.40;;;7.18;;
56427;SDS011;42331;53.578;9.760;2024-01-30T11:32:23;12.95;;;7.03;;
56427;SDS011;42331;53.578;9.760;2024-01-30T11:34:54;12.10;;;6.95;;
56427;SDS011;42331;53.578;9.760;2024-01-30T11:37:25;13.68;;;6.95;;
56427;SDS011;42331;53.578;9.760;2024-01-30T11:40:06;13.68;;;7.45;;
56427;SDS011;42331;53.578;9.760;2024-01-30T11:42:41;11.35;;;7.35;;
56427;SDS011;42331;53.578;9.760;2024-01-30T11:45:13;11.93;;;7.50;;
56427;SDS011;42331;53.578;9.760;2024-01-30T11:47:44;12.82;;;6.82;;
56427;SDS011;42331;53.578;9.760;2024-01-30T11:50:15;13.50;;;6.95;;
56427;SDS011;42331;53.578;9.760;2024-01-30T11:52:46;13.55;;;7.30;;
56427;SDS011;42331;53.578;9.760;2024-01-30T11:57:49;11.48;;;6.95;;
56427;SDS011;42331;53.578;9.760;2024-01-30T12:00:19;10.70;;;6.85;;
56427;SDS011;42331;53.578;9.760;2024-01-30T12:02:51;14.30;;;6.82;;
56427;SDS011;42331;53.578;9.760;2024-01-30T12:05:25;13.55;;;7.65;;
56427;SDS011;42331;53.578;9.760;2024-01-30T12:07:57;12.60;;;6.95;;
56427;SDS011;42331;53.578;9.760;2024-01-30T12:10:31;10.32;;;6.90;;
56427;SDS011;42331;53.578;9.760;2024-01-30T12:13:02;12.10;;;7.10;;
56427;SDS011;42331;53.578;9.760;2024-01-30T12:15:33;11.13;;;7.63;;
56427;SDS011;42331;53.578;9.760;2024-01-30T12:18:05;16.27;;;7.95;;
56427;SDS011;42331;53.578;9.760;2024-01-30T12:20:36;13.10;;;7.60;;
56427;SDS011;42331;53.578;9.760;2024-01-30T12:23:07;14.02;;;7.15;;
56427;SDS011;42331;53.578;9.760;2024-01-30T12:25:38;9.88;;;5.13;;
56427;SDS011;42331;53.578;9.760;2024-01-30T12:28:08;11.32;;;7.25;;
56427;SDS011;42331;53.578;9.760;2024-01-30T12:30:41;12.80;;;7.30;;
56427;SDS011;42331;53.578;9.760;2024-01-30T12:33:16;15.15;;;7.47;;
56427;SDS011;42331;53.578;9.760;2024-01-30T12:35:48;11.70;;;7.47;;
56427;SDS011;42331;53.578;9.760;2024-01-30T12:38:19;13.95;;;7.38;;
56427;SDS011;42331;53.578;9.760;2024-01-30T12:40:53;10.43;;;6.35;;
56427;SDS011;42331;53.578;9.760;2024-01-30T12:43:25;11.68;;;6.80;;
56427;SDS011;42331;53.578;9.760;2024-01-30T12:45:56;11.98;;;6.90;;
56427;SDS011;42331;53.578;9.760;2024-01-30T12:48:27;11.43;;;7.03;;
56427;SDS011;42331;53.578;9.760;2024-01-30T12:50:59;13.60;;;7.15;;
56427;SDS011;42331;53.578;9.760;2024-01-30T12:53:30;14.10;;;6.45;;
56427;SDS011;42331;53.578;9.760;2024-01-30T12:56:01;12.85;;;6.82;;
56427;SDS011;42331;53.578;9.760;2024-01-30T12:58:32;12.93;;;7.13;;
56427;SDS011;42331;53.578;9.760;2024-01-30T13:01:02;12.40;;;7.40;;
56427;SDS011;42331;53.578;9.760;2024-01-30T13:03:33;13.13;;;6.53;;
56427;SDS011;42331;53.578;9.760;2024-01-30T13:06:04;12.77;;;7.00;;
56427;SDS011;42331;53.578;9.760;2024-01-30T13:08:34;11.52;;;6.70;;
56427;SDS011;42331;53.578;9.760;2024-01-30T13:11:05;12.23;;;6.82;;
56427;SDS011;42331;53.578;9.760;2024-01-30T13:13:37;14.30;;;7.00;;
56427;SDS011;42331;53.578;9.760;2024-01-30T13:16:07;12.25;;;7.13;;
56427;SDS011;42331;53.578;9.760;2024-01-30T13:18:38;14.52;;;7.00;;
56427;SDS011;42331;53.578;9.760;2024-01-30T13:21:09;10.90;;;6.38;;
56427;SDS011;42331;53.578;9.760;2024-01-30T13:23:40;10.48;;;6.68;;
56427;SDS011;42331;53.578;9.760;2024-01-30T13:26:11;13.30;;;7.03;;
56427;SDS011;42331;53.578;9.760;2024-01-30T13:28:42;10.97;;;6.77;;
56427;SDS011;42331;53.578;9.760;2024-01-30T13:31:14;11.77;;;6.75;;
56427;SDS011;42331;53.578;9.760;2024-01-30T13:33:45;12.37;;;6.93;;
56427;SDS011;42331;53.578;9.760;2024-01-30T13:36:15;12.55;;;7.05;;
56427;SDS011;42331;53.578;9.760;2024-01-30T13:38:47;10.93;;;6.57;;
56427;SDS011;42331;53.578;9.760;2024-01-30T13:41:17;12.98;;;6.65;;
56427;SDS011;42331;53.578;9.760;2024-01-30T13:43:48;10.63;;;7.17;;
56427;SDS011;42331;53.578;9.760;2024-01-30T13:46:19;12.85;;;6.90;;
56427;SDS011;42331;53.578;9.760;2024-01-30T13:48:50;11.38;;;6.38;;
56427;SDS011;42331;53.578;9.760;2024-01-30T13:51:21;13.52;;;6.35;;
56427;SDS011;42331;53.578;9.760;2024-01-30T13:53:52;16.92;;;6.60;;
56427;SDS011;42331;53.578;9.760;2024-01-30T13:56:23;8.47;;;5.10;;
56427;SDS011;42331;53.578;9.760;2024-01-30T13:58:53;10.88;;;6.78;;
56427;SDS011;42331;53.578;9.760;2024-01-30T14:03:56;14.75;;;7.10;;
56427;SDS011;42331;53.578;9.760;2024-01-30T14:06:26;10.95;;;6.03;;
56427;SDS011;42331;53.578;9.760;2024-01-30T14:08:57;14.00;;;6.47;;
56427;SDS011;42331;53.578;9.760;2024-01-30T14:11:28;16.30;;;6.55;;
56427;SDS011;42331;53.578;9.760;2024-01-30T14:13:59;12.82;;;6.90;;
56427;SDS011;42331;53.578;9.760;2024-01-30T14:16:29;13.90;;;6.93;;
56427;SDS011;42331;53.578;9.760;2024-01-30T14:19:00;9.20;;;5.85;;
56427;SDS011;42331;53.578;9.760;2024-01-30T14:21:31;10.55;;;6.30;;
56427;SDS011;42331;53.578;9.760;2024-01-30T14:24:01;10.05;;;6.22;;
56427;SDS011;42331;53.578;9.760;2024-01-30T14:26:32;13.20;;;6.97;;
56427;SDS011;42331;53.578;9.760;2024-01-30T14:29:03;13.65;;;6.70;;
56427;SDS011;42331;53.578;9.760;2024-01-30T14:31:33;11.52;;;6.50;;
56427;SDS011;42331;53.578;9.760;2024-01-30T14:34:04;10.45;;;6.65;;
56427;SDS011;42331;53.578;9.760;2024-01-30T14:36:38;11.65;;;6.55;;
56427;SDS011;42331;53.578;9.760;2024-01-30T14:39:08;9.30;;;6.30;;
56427;SDS011;42331;53.578;9.760;2024-01-30T14:41:39;16.00;;;7.47;;
56427;SDS011;42331;53.578;9.760;2024-01-30T14:44:10;16.07;;;7.10;;
56427;SDS011;42331;53.578;9.760;2024-01-30T14:46:41;13.48;;;7.32;;
56427;SDS011;42331;53.578;9.760;2024-01-30T14:49:12;12.13;;;7.15;;
56427;SDS011;42331;53.578;9.760;2024-01-30T14:51:42;12.32;;;6.97;;
56427;SDS011;42331;53.578;9.760;2024-01-30T14:54:13;12.90;;;7.03;;
56427;SDS011;42331;53.578;9.760;2024-01-30T14:56:44;17.13;;;7.60;;
56427;SDS011;42331;53.578;9.760;2024-01-30T14:59:15;12.77;;;6.90;;
56427;SDS011;42331;53.578;9.760;2024-01-30T15:01:45;12.48;;;6.68;;
56427;SDS011;42331;53.578;9.760;2024-01-30T15:04:17;11.82;;;6.47;;
56427;SDS011;42331;53.578;9.760;2024-01-30T15:06:47;11.07;;;6.95;;
56427;SDS011;42331;53.578;9.760;2024-01-30T15:11:52;11.68;;;6.72;;
56427;SDS011;42331;53.578;9.760;2024-01-30T15:14:23;12.63;;;7.28;;
56427;SDS011;42331;53.578;9.760;2024-01-30T15:16:54;13.68;;;7.15;;
56427;SDS011;42331;53.578;9.760;2024-01-30T15:19:25;10.57;;;6.35;;
56427;SDS011;42331;53.578;9.760;2024-01-30T15:21:56;10.85;;;6.75;;
56427;SDS011;42331;53.578;9.760;2024-01-30T15:24:26;12.88;;;6.95;;
56427;SDS011;42331;53.578;9.760;2024-01-30T15:26:57;15.85;;;7.43;;
56427;SDS011;42331;53.578;9.760;2024-01-30T15:29:27;13.02;;;7.13;;
56427;SDS011;42331;53.578;9.760;2024-01-30T15:31:58;13.32;;;7.43;;
56427;SDS011;42331;53.578;9.760;2024-01-30T15:34:29;11.88;;;7.07;;
56427;SDS011;42331;53.578;9.760;2024-01-30T15:36:59;11.93;;;7.13;;
56427;SDS011;42331;53.578;9.760;2024-01-30T15:39:30;13.27;;;6.68;;
56427;SDS011;42331;53.578;9.760;2024-01-30T15:42:01;13.30;;;7.57;;
56427;SDS011;42331;53.578;9.760;2024-01-30T15:44:32;11.52;;;7.32;;
56427;SDS011;42331;53.578;9.760;2024-01-30T15:47:02;13.85;;;7.40;;
56427;SDS011;42331;53.578;9.760;2024-01-30T15:49:33;12.82;;;7.60;;
56427;SDS011;42331;53.578;9.760;2024-01-30T15:52:04;12.77;;;7.05;;
56427;SDS011;42331;53.578;9.760;2024-01-30T15:54:35;13.55;;;7.95;;
56427;SDS011;42331;53.578;9.760;2024-01-30T15:57:05;14.15;;;7.63;;
56427;SDS011;42331;53.578;9.760;2024-01-30T15:59:36;17.67;;;7.63;;
56427;SDS011;42331;53.578;9.760;2024-01-30T16:02:07;16.23;;;8.05;;
56427;SDS011;42331;53.578;9.760;2024-01-30T16:04:38;15.43;;;7.95;;
56427;SDS011;42331;53.578;9.760;2024-01-30T16:07:08;15.65;;;7.82;;
56427;SDS011;42331;53.578;9.760;2024-01-30T16:09:39;13.10;;;7.63;;
56427;SDS011;42331;53.578;9.760;2024-01-30T16:12:10;12.20;;;7.50;;
56427;SDS011;42331;53.578;9.760;2024-01-30T16:14:40;11.93;;;7.18;;
56427;SDS011;42331;53.578;9.760;2024-01-30T16:17:11;17.67;;;7.50;;
56427;SDS011;42331;53.578;9.760;2024-01-30T16:19:41;16.27;;;7.97;;
56427;SDS011;42331;53.578;9.760;2024-01-30T16:22:12;16.75;;;8.15;;
56427;SDS011;42331;53.578;9.760;2024-01-30T16:24:43;9.73;;;6.43;;
56427;SDS011;42331;53.578;9.760;2024-01-30T16:27:14;16.00;;;8.17;;
56427;SDS011;42331;53.578;9.760;2024-01-30T16:29:45;13.88;;;8.38;;
56427;SDS011;42331;53.578;9.760;2024-01-30T16:32:16;13.68;;;7.93;;
56427;SDS011;42331;53.578;9.760;2024-01-30T16:34:47;15.00;;;7.80;;